Akinaitsat, Greenland
Current Conditions -  °F | °C
As of 5:50 AM on Friday 24 Oct 2014 (Local Time) from BGKK Reporting Station
Snow Showers Snow Showers  
Wind Chill: 17°   Ceiling: 2900
Heat Index: 27°   Visibility: 6mi
Dew Point: 18°   Wind: 9mph
Humidity: 69%   Direction: 360°N
Pressure: 29.21"   Gusts: NA
Location:  65.53°N, 37.17°W
Report Text: BGKK 240750Z AUTO 36008KT 9999NDV -SHSN OVC029/// M03/M08 Q0989
Loading
Personal Weather Stations






























Interactive Weather Map
Tropical Storm Tracking
New forecast layout! Learn more

10-Day Weather Forecast

Advertisements
Track Severe Weather on mobile